Dardenne Prairie, MO

12:53 PM CST on January 25, 2015 (GMT -0600)
Royal Oaks | Change Station
CLOSE
Current Station
Personal Weather Station
Location: O'Fallon, MO
Elevation: 538 ft
Nearby Weather Stations

Elev 538 ft 38.84 °N, 90.73 °W | Updated 4 seconds ago

Overcast
Overcast
44.1 °F
Feels Like 44 °F
N
3.0
Wind Variable Wind from WNW
Gusts 11.0 mph

Today
High -- | Low -- °F
--% Chance of Precip.
Yesterday
High -- | Low -- °F
Precip. -- in
7:14 AM 5:16 PM
Waxing Crescent, 34% visible
Pressure 29.60 in
Visibility 6.0 miles
Clouds Mostly Cloudy 1400 ft
Overcast 2000 ft
Windchill 44 °F
Dew Point 42 °F
Humidity 93%
Rainfall 0.07 in
Snow Depth Not available.
UV 1 out of 12
Pollen .10 out of 12
Air Quality Not available.
Flu Activity Not available.
SPECI KSUS 251811Z 28009KT 6SM BR BKN014 OVC020 08/06 A2960 RMK AO2

More Conditions Fewer Conditions

Pressure 29.60 in
Visibility 6.0 miles
Clouds Mostly Cloudy 1400 ft
Overcast 2000 ft
Windchill 44 °F
Dew Point 42 °F
Humidity 93%
Rainfall 0.07 in
Snow Depth Not available.
UV 1 out of 12
Pollen .10 out of 12
Air Quality Not available.
Flu Activity Not available.
SPECI KSUS 251811Z 28009KT 6SM BR BKN014 OVC020 08/06 A2960 RMK AO2

More Conditions Fewer Conditions

10-Day Weather Forecast

Almanac

Astronomy

Jan. 25, 2015 Rise Set
Actual Time
Civil Twilight
Nautical Twilight
Astronomical Twilight
Moon
Length of Visible Light
Length of Day
Tomorrow will be .
, % of the Moon is Illuminated

Today's Extremes

State Highs State Lows

Community

WunderPhotos

Upload Photos

1,790,017 photos uploaded!

WunderBlogs® & News

Nearby

Air Quality

  Air Quality AQ Index Pollutant
Not available.

Snow Depth

Station Depth Elevation

Earthquake Activity

City Distance Mag. Time & Date
Minimum magnitude displayed is 2.5.

Coastal Water Temperatures

Place Temperature

Nearby Weather Stations